createdAt,value
2023-03-04T00:01:01.241Z,12.37
2023-03-04T00:03:29.835Z,12.53
2023-03-04T00:05:58.134Z,12.43
2023-03-04T00:08:27.866Z,12.30
2023-03-04T00:10:56.214Z,12.90
2023-03-04T00:13:25.203Z,12.90
2023-03-04T00:15:53.813Z,13.23
2023-03-04T00:18:22.256Z,12.57
2023-03-04T00:20:50.908Z,12.30
2023-03-04T00:23:19.461Z,11.50
2023-03-04T00:25:49.086Z,12.10
2023-03-04T00:28:17.469Z,12.93
2023-03-04T00:30:45.946Z,11.37
2023-03-04T00:33:14.323Z,12.43
2023-03-04T00:35:42.758Z,13.03
2023-03-04T00:38:11.516Z,12.60
2023-03-04T00:40:39.932Z,13.37
2023-03-04T00:43:09.692Z,12.77
2023-03-04T00:45:38.116Z,12.87
2023-03-04T00:48:06.702Z,12.23
2023-03-04T00:50:36.317Z,12.13
2023-03-04T00:53:04.816Z,13.43
2023-03-04T00:55:33.295Z,11.70
2023-03-04T00:58:01.717Z,13.30
2023-03-04T01:00:31.687Z,13.27
2023-03-04T01:03:00.050Z,13.03
2023-03-04T01:05:28.624Z,12.60
2023-03-04T01:07:57.003Z,12.30
2023-03-04T01:10:25.478Z,13.90
2023-03-04T01:12:54.517Z,13.90
2023-03-04T01:15:22.853Z,14.33
2023-03-04T01:17:52.737Z,13.47
2023-03-04T01:20:21.271Z,13.97
2023-03-04T01:22:49.650Z,14.37
2023-03-04T01:25:18.269Z,13.97
2023-03-04T01:27:46.748Z,14.27
2023-03-04T01:30:15.504Z,13.87
2023-03-04T01:32:43.906Z,15.00
2023-03-04T01:35:13.637Z,15.07
2023-03-04T01:37:42.171Z,14.23
2023-03-04T01:40:11.568Z,14.33
2023-03-04T01:42:40.120Z,14.60
2023-03-04T01:45:13.009Z,13.07
2023-03-04T01:47:43.758Z,13.77
2023-03-04T01:50:21.914Z,14.03
2023-03-04T01:52:50.397Z,14.13
2023-03-04T01:55:20.852Z,13.03
2023-03-04T01:57:51.130Z,13.20
2023-03-04T02:00:26.914Z,13.43
2023-03-04T02:02:58.884Z,12.33
2023-03-04T02:05:29.653Z,13.60
2023-03-04T02:07:59.686Z,13.73
2023-03-04T02:10:28.312Z,13.40
2023-03-04T02:12:57.234Z,13.30
2023-03-04T02:15:26.325Z,11.93
2023-03-04T02:17:54.791Z,14.03
2023-03-04T02:20:43.798Z,14.10
2023-03-04T02:23:18.872Z,13.77
2023-03-04T02:25:51.674Z,14.13
2023-03-04T02:28:21.779Z,14.30
2023-03-04T02:30:50.157Z,14.43
2023-03-04T02:33:19.706Z,13.93
2023-03-04T02:35:48.611Z,14.27
2023-03-04T02:38:17.136Z,14.47
2023-03-04T02:40:50.108Z,16.00
2023-03-04T02:43:18.747Z,16.23
2023-03-04T02:45:51.514Z,15.73
2023-03-04T02:48:21.591Z,15.57
2023-03-04T02:50:53.167Z,15.67
2023-03-04T02:53:23.047Z,14.63
2023-03-04T02:55:52.105Z,14.33
2023-03-04T02:58:23.620Z,14.53
2023-03-04T03:00:53.448Z,15.10
2023-03-04T03:03:21.826Z,14.30
2023-03-04T03:05:50.313Z,14.93
2023-03-04T03:08:19.034Z,14.77
2023-03-04T03:10:47.628Z,15.07
2023-03-04T03:13:16.013Z,15.37
2023-03-04T03:15:44.890Z,15.23
2023-03-04T03:18:15.437Z,15.13
2023-03-04T03:20:44.045Z,14.07
2023-03-04T03:23:12.476Z,14.50
2023-03-04T03:25:40.867Z,14.60
2023-03-04T03:28:09.236Z,15.10
2023-03-04T03:30:39.349Z,14.90
2023-03-04T03:33:08.114Z,15.60
2023-03-04T03:35:39.055Z,16.60
2023-03-04T03:38:07.621Z,16.13
2023-03-04T03:40:36.113Z,16.80
2023-03-04T03:43:04.471Z,17.10
2023-03-04T03:45:33.235Z,17.07
2023-03-04T03:48:01.660Z,17.67
2023-03-04T03:50:30.111Z,17.23
2023-03-04T03:53:00.090Z,17.07
2023-03-04T03:55:28.556Z,17.53
2023-03-04T03:57:56.921Z,17.43
2023-03-04T04:00:25.607Z,17.03
2023-03-04T04:02:56.054Z,16.50
2023-03-04T04:05:24.424Z,16.67
2023-03-04T04:07:54.170Z,16.90
2023-03-04T04:10:23.964Z,16.47
2023-03-04T04:12:52.508Z,17.03
2023-03-04T04:15:21.092Z,17.40
2023-03-04T04:17:49.404Z,17.20
2023-03-04T04:20:18.206Z,17.80
2023-03-04T04:22:46.505Z,16.17
2023-03-04T04:25:14.936Z,16.57
2023-03-04T04:27:44.692Z,17.17
2023-03-04T04:30:14.169Z,16.93
2023-03-04T04:32:42.546Z,15.80
2023-03-04T04:35:11.208Z,16.73
2023-03-04T04:37:39.742Z,16.83
2023-03-04T04:40:09.158Z,16.47
2023-03-04T04:42:37.601Z,18.50
2023-03-04T04:45:08.484Z,17.20
2023-03-04T04:47:36.910Z,16.50
2023-03-04T04:50:06.256Z,15.83
2023-03-04T04:52:34.638Z,16.60
2023-03-04T04:55:03.007Z,16.67
2023-03-04T04:57:31.377Z,16.60
2023-03-04T04:59:59.762Z,16.17
2023-03-04T05:02:29.638Z,15.97
2023-03-04T05:04:58.051Z,19.03
2023-03-04T05:07:26.443Z,18.60
2023-03-04T05:09:54.685Z,19.60
2023-03-04T05:12:23.045Z,18.73
2023-03-04T05:14:51.391Z,19.83
2023-03-04T05:17:19.739Z,20.23
2023-03-04T05:19:49.497Z,19.90
2023-03-04T05:22:17.912Z,20.43
2023-03-04T05:24:46.328Z,20.20
2023-03-04T05:27:14.716Z,19.77
2023-03-04T05:29:44.917Z,19.43
2023-03-04T05:32:13.516Z,19.63
2023-03-04T05:34:42.070Z,20.10
2023-03-04T05:37:11.714Z,21.93
2023-03-04T05:39:40.157Z,22.00
2023-03-04T05:42:08.477Z,22.90
2023-03-04T05:44:36.907Z,21.53
2023-03-04T05:47:05.178Z,19.80
2023-03-04T05:49:33.519Z,21.33
2023-03-04T05:52:01.927Z,23.00
2023-03-04T05:54:31.641Z,19.23
2023-03-04T05:57:00.157Z,20.40
2023-03-04T05:59:28.427Z,21.90
2023-03-04T06:01:56.804Z,20.30
2023-03-04T06:04:25.251Z,20.10
2023-03-04T06:06:53.532Z,21.33
2023-03-04T06:09:22.157Z,19.60
2023-03-04T06:11:51.717Z,21.67
2023-03-04T06:14:20.223Z,21.47
2023-03-04T06:16:48.530Z,21.10
2023-03-04T06:19:16.842Z,20.70
2023-03-04T06:21:45.229Z,20.43
2023-03-04T06:24:13.729Z,21.23
2023-03-04T06:26:42.138Z,22.20
2023-03-04T06:29:12.049Z,20.70
2023-03-04T06:31:41.950Z,21.20
2023-03-04T06:34:10.636Z,21.07
2023-03-04T06:36:39.142Z,21.50
2023-03-04T06:39:08.603Z,22.37
2023-03-04T06:41:37.327Z,20.70
2023-03-04T06:44:06.101Z,23.07
2023-03-04T06:46:37.286Z,23.27
2023-03-04T06:49:05.715Z,23.07
2023-03-04T06:51:34.067Z,24.13
2023-03-04T06:54:02.419Z,24.60
2023-03-04T06:56:31.025Z,25.53
2023-03-04T06:58:59.344Z,25.50
2023-03-04T07:01:29.837Z,24.87
2023-03-04T07:03:59.814Z,26.07
2023-03-04T07:06:29.737Z,24.10
2023-03-04T07:08:59.085Z,26.40
2023-03-04T07:11:27.711Z,24.33
2023-03-04T07:13:56.152Z,25.07
2023-03-04T07:16:25.042Z,25.50
2023-03-04T07:18:53.555Z,26.07
2023-03-04T07:21:23.230Z,25.13
2023-03-04T07:23:51.723Z,23.47
2023-03-04T07:26:20.478Z,23.67
2023-03-04T07:28:49.291Z,22.80
2023-03-04T07:31:24.145Z,22.63
2023-03-04T07:33:53.005Z,20.93
2023-03-04T07:36:22.798Z,21.70
2023-03-04T07:38:54.783Z,23.00
2023-03-04T07:41:24.904Z,21.07
2023-03-04T07:43:53.444Z,23.10
2023-03-04T07:46:21.873Z,22.07
2023-03-04T07:48:50.299Z,22.27
2023-03-04T07:51:20.743Z,21.47
2023-03-04T07:53:52.080Z,24.23
2023-03-04T07:56:22.585Z,23.07
2023-03-04T07:58:53.714Z,22.00
2023-03-04T08:01:24.850Z,23.23
2023-03-04T08:03:53.725Z,22.97
2023-03-04T08:06:23.438Z,21.77
2023-03-04T08:08:58.256Z,20.93
2023-03-04T08:11:26.939Z,21.20
2023-03-04T08:13:55.427Z,20.17
2023-03-04T08:16:25.130Z,19.30
2023-03-04T08:18:56.312Z,18.33
2023-03-04T08:21:27.435Z,17.37
2023-03-04T08:23:59.466Z,19.80
2023-03-04T08:26:30.084Z,18.23
2023-03-04T08:28:59.198Z,18.03
2023-03-04T08:31:27.678Z,19.03
2023-03-04T08:33:56.657Z,17.10
2023-03-04T08:36:25.066Z,17.37
2023-03-04T08:38:53.376Z,16.13
2023-03-04T08:41:23.481Z,18.23
2023-03-04T08:43:51.914Z,16.77
2023-03-04T08:46:20.428Z,16.40
2023-03-04T08:48:48.887Z,18.03
2023-03-04T08:51:18.399Z,18.43
2023-03-04T08:53:47.085Z,18.40
2023-03-04T08:56:17.034Z,18.33
2023-03-04T08:58:46.635Z,19.00
2023-03-04T09:01:16.864Z,17.13
2023-03-04T09:03:45.643Z,18.40
2023-03-04T09:06:16.762Z,18.07
2023-03-04T09:08:45.678Z,18.10
2023-03-04T09:11:14.986Z,18.80
2023-03-04T09:13:43.605Z,19.13
2023-03-04T09:16:14.781Z,20.97
2023-03-04T09:18:43.534Z,19.33
2023-03-04T09:21:11.967Z,19.00
2023-03-04T09:23:40.985Z,21.70
2023-03-04T09:26:17.660Z,21.33
2023-03-04T09:28:46.117Z,22.17
2023-03-04T09:31:16.475Z,19.70
2023-03-04T09:33:44.963Z,19.47
2023-03-04T09:36:15.390Z,20.17
2023-03-04T09:38:44.385Z,21.63
2023-03-04T09:41:18.497Z,19.53
2023-03-04T09:43:47.850Z,20.10
2023-03-04T09:46:21.488Z,19.33
2023-03-04T09:48:52.546Z,19.93
2023-03-04T09:51:24.052Z,18.53
2023-03-04T09:54:07.013Z,18.93
2023-03-04T09:56:37.785Z,18.73
2023-03-04T09:59:18.492Z,20.97
2023-03-04T10:01:51.503Z,20.00
2023-03-04T10:04:27.456Z,18.33
2023-03-04T10:06:56.507Z,18.57
2023-03-04T10:09:29.072Z,19.13
2023-03-04T10:12:03.831Z,17.90
2023-03-04T10:14:38.549Z,17.93
2023-03-04T10:17:18.506Z,18.03
2023-03-04T10:20:02.425Z,17.37
2023-03-04T10:22:36.423Z,16.97
2023-03-04T10:25:17.809Z,18.60
2023-03-04T10:27:52.024Z,17.23
2023-03-04T10:30:33.989Z,18.93
2023-03-04T10:33:04.089Z,18.33
2023-03-04T10:35:37.550Z,18.10
2023-03-04T10:38:06.097Z,17.90
2023-03-04T10:40:40.512Z,18.77
2023-03-04T10:43:16.700Z,16.23
2023-03-04T10:45:46.360Z,16.53
2023-03-04T10:48:25.381Z,15.47
2023-03-04T10:50:53.948Z,16.67
2023-03-04T10:53:34.585Z,16.50
2023-03-04T10:56:03.230Z,17.03
2023-03-04T10:58:31.683Z,16.73
2023-03-04T11:01:06.005Z,16.13
2023-03-04T11:03:38.773Z,16.03
2023-03-04T11:06:12.162Z,15.37
2023-03-04T11:08:42.686Z,15.30
2023-03-04T11:11:34.483Z,18.30
2023-03-04T11:14:09.790Z,16.30
2023-03-04T11:16:38.314Z,17.83
2023-03-04T11:19:17.645Z,17.33
2023-03-04T11:21:47.619Z,17.10
2023-03-04T11:24:28.771Z,17.30
2023-03-04T11:27:04.764Z,16.57
2023-03-04T11:29:38.275Z,16.10
2023-03-04T11:32:12.377Z,15.33
2023-03-04T11:34:48.062Z,15.57
2023-03-04T11:37:24.193Z,14.67
2023-03-04T11:39:57.757Z,15.90
2023-03-04T11:42:34.170Z,15.77
2023-03-04T11:45:02.826Z,15.57
2023-03-04T11:47:49.162Z,16.97
2023-03-04T11:50:39.155Z,16.27
2023-03-04T11:53:29.405Z,16.77
2023-03-04T11:56:13.658Z,16.53
2023-03-04T11:59:20.708Z,16.30
2023-03-04T12:01:57.518Z,17.73
2023-03-04T12:04:49.434Z,17.37
2023-03-04T12:07:34.013Z,16.50
2023-03-04T12:10:16.366Z,16.67
2023-03-04T12:13:14.174Z,16.77
2023-03-04T12:15:51.394Z,17.43
2023-03-04T12:18:40.614Z,16.27
2023-03-04T12:21:20.996Z,16.70
2023-03-04T12:24:11.359Z,16.33
2023-03-04T12:26:44.707Z,17.53
2023-03-04T12:29:20.262Z,18.73
2023-03-04T12:31:58.170Z,17.07
2023-03-04T12:34:47.432Z,18.40
2023-03-04T12:37:38.053Z,17.03
2023-03-04T12:40:28.216Z,15.87
2023-03-04T12:43:12.757Z,16.07
2023-03-04T12:45:48.802Z,15.50
2023-03-04T12:48:28.926Z,17.30
2023-03-04T12:51:11.006Z,16.70
2023-03-04T12:53:47.267Z,17.83
2023-03-04T12:56:26.634Z,17.50
2023-03-04T12:58:56.094Z,18.35
2023-03-04T13:01:29.099Z,17.60
2023-03-04T13:04:03.865Z,18.27
2023-03-04T13:06:40.962Z,17.08
2023-03-04T13:09:17.713Z,18.77
2023-03-04T13:11:56.224Z,18.53
2023-03-04T13:14:36.154Z,17.73
2023-03-04T13:17:43.476Z,17.50
2023-03-04T13:20:34.902Z,19.33
2023-03-04T13:23:05.563Z,18.30
2023-03-04T13:25:36.927Z,19.17
2023-03-04T13:28:25.723Z,19.77
2023-03-04T13:31:26.964Z,19.37
2023-03-04T13:34:05.062Z,19.83
2023-03-04T13:36:56.071Z,19.50
2023-03-04T13:39:35.612Z,18.40
2023-03-04T13:42:06.076Z,19.33
2023-03-04T13:45:02.478Z,19.40
2023-03-04T13:47:45.104Z,19.80
2023-03-04T13:50:41.656Z,20.70
2023-03-04T13:53:41.109Z,20.27
2023-03-04T13:56:38.528Z,21.63
2023-03-04T13:59:30.810Z,20.13
2023-03-04T14:02:03.583Z,20.00
2023-03-04T14:04:34.861Z,19.70
2023-03-04T14:07:06.013Z,20.20
2023-03-04T14:09:36.242Z,20.57
2023-03-04T14:12:13.742Z,19.60
2023-03-04T14:14:50.052Z,20.10
2023-03-04T14:17:23.603Z,18.60
2023-03-04T14:19:54.011Z,18.90
2023-03-04T14:22:25.789Z,20.13
2023-03-04T14:24:58.693Z,19.53
2023-03-04T14:27:27.663Z,18.30
2023-03-04T14:29:59.931Z,20.37
2023-03-04T14:32:31.617Z,19.83
2023-03-04T14:35:03.446Z,17.20
2023-03-04T14:37:39.232Z,19.50
2023-03-04T14:40:08.859Z,19.63
2023-03-04T14:42:41.900Z,18.47
2023-03-04T14:45:15.791Z,19.67
2023-03-04T14:47:48.605Z,19.67
2023-03-04T14:50:18.722Z,20.00
2023-03-04T14:52:52.003Z,20.13
2023-03-04T14:55:24.147Z,20.60
2023-03-04T14:57:58.668Z,19.43
2023-03-04T15:00:30.861Z,19.70
2023-03-04T15:03:02.852Z,19.60
2023-03-04T15:05:33.792Z,20.73
2023-03-04T15:08:04.766Z,20.13
2023-03-04T15:10:35.333Z,21.83
2023-03-04T15:13:07.642Z,20.03
2023-03-04T15:15:42.176Z,18.17
2023-03-04T15:18:26.593Z,19.83
2023-03-04T15:21:00.969Z,20.67
2023-03-04T15:23:31.189Z,20.17
2023-03-04T15:26:02.113Z,18.43
2023-03-04T15:28:35.816Z,19.60
2023-03-04T15:31:04.746Z,19.43
2023-03-04T15:33:35.045Z,20.93
2023-03-04T15:36:04.771Z,19.30
2023-03-04T15:38:33.373Z,20.40
2023-03-04T15:41:02.107Z,20.03
2023-03-04T15:43:30.454Z,20.93
2023-03-04T15:45:58.870Z,21.27
2023-03-04T15:48:27.278Z,20.97
2023-03-04T15:51:00.383Z,21.43
2023-03-04T15:53:33.957Z,20.37
2023-03-04T15:56:03.808Z,20.43
2023-03-04T15:58:35.138Z,21.77
2023-03-04T16:01:04.036Z,20.90
2023-03-04T16:03:32.572Z,22.20
2023-03-04T16:06:02.410Z,22.70
2023-03-04T16:08:30.922Z,21.27
2023-03-04T16:10:59.444Z,21.77
2023-03-04T16:13:27.913Z,22.30
2023-03-04T16:15:56.374Z,20.77
2023-03-04T16:18:24.999Z,21.13
2023-03-04T16:20:53.753Z,20.03
2023-03-04T16:23:25.640Z,19.73
2023-03-04T16:25:56.970Z,19.10
2023-03-04T16:28:25.538Z,16.83
2023-03-04T16:30:54.049Z,19.70
2023-03-04T16:33:22.504Z,19.57
2023-03-04T16:35:52.058Z,18.43
2023-03-04T16:38:28.210Z,20.30
2023-03-04T16:40:58.324Z,19.23
2023-03-04T16:43:26.969Z,19.00
2023-03-04T16:45:55.702Z,17.37
2023-03-04T16:48:24.322Z,16.77
2023-03-04T16:50:52.732Z,17.23
2023-03-04T16:53:32.470Z,16.60
2023-03-04T16:56:05.818Z,18.27
2023-03-04T16:58:34.279Z,18.07
2023-03-04T17:01:03.191Z,18.60
2023-03-04T17:03:31.609Z,18.13
2023-03-04T17:06:00.216Z,17.97
2023-03-04T17:08:29.892Z,17.30
2023-03-04T17:10:58.367Z,16.87
2023-03-04T17:13:26.769Z,17.97
2023-03-04T17:15:55.277Z,17.23
2023-03-04T17:18:23.700Z,15.27
2023-03-04T17:20:51.982Z,16.20
2023-03-04T17:23:20.270Z,17.17
2023-03-04T17:25:56.701Z,15.80
2023-03-04T17:28:25.188Z,14.00
2023-03-04T17:30:53.571Z,14.03
2023-03-04T17:33:22.733Z,14.67
2023-03-04T17:35:51.369Z,14.47
2023-03-04T17:38:19.776Z,14.40
2023-03-04T17:40:48.154Z,13.43
2023-03-04T17:43:17.853Z,13.50
2023-03-04T17:45:46.272Z,15.30
2023-03-04T17:48:15.361Z,14.40
2023-03-04T17:50:50.764Z,14.70
2023-03-04T17:53:19.875Z,13.47
2023-03-04T17:55:51.754Z,15.17
2023-03-04T17:58:21.637Z,13.40
2023-03-04T18:00:52.951Z,13.43
2023-03-04T18:03:21.532Z,13.63
2023-03-04T18:05:49.815Z,13.57
2023-03-04T18:08:18.170Z,12.93
2023-03-04T18:10:46.609Z,12.23
2023-03-04T18:13:14.922Z,13.23
2023-03-04T18:15:44.685Z,12.33
2023-03-04T18:18:13.373Z,12.30
2023-03-04T18:20:41.927Z,12.33
2023-03-04T18:23:10.454Z,13.17
2023-03-04T18:25:38.877Z,12.47
2023-03-04T18:28:08.884Z,11.53
2023-03-04T18:30:37.309Z,12.77
2023-03-04T18:33:07.112Z,12.13
2023-03-04T18:35:35.464Z,11.20
2023-03-04T18:38:03.922Z,11.03
2023-03-04T18:40:32.395Z,12.40
2023-03-04T18:43:01.080Z,9.23
2023-03-04T18:45:29.727Z,10.50
2023-03-04T18:48:00.397Z,11.13
2023-03-04T18:50:30.070Z,11.53
2023-03-04T18:52:59.698Z,11.27
2023-03-04T18:55:28.448Z,12.03
2023-03-04T18:58:01.566Z,11.30
2023-03-04T19:00:30.629Z,12.33
2023-03-04T19:03:02.214Z,12.00
2023-03-04T19:05:33.761Z,12.43
2023-03-04T19:08:02.207Z,11.80
2023-03-04T19:10:30.885Z,12.13
2023-03-04T19:12:59.711Z,12.30
2023-03-04T19:15:28.478Z,11.80
2023-03-04T19:17:56.926Z,12.07
2023-03-04T19:20:25.367Z,11.90
2023-03-04T19:22:55.122Z,12.37
2023-03-04T19:25:23.617Z,14.23
2023-03-04T19:27:55.342Z,13.83
2023-03-04T19:30:24.152Z,12.40
2023-03-04T19:32:52.508Z,12.23
2023-03-04T19:35:20.922Z,12.97
2023-03-04T19:37:49.398Z,12.70
2023-03-04T19:40:19.313Z,12.77
2023-03-04T19:42:47.710Z,12.07
2023-03-04T19:45:16.201Z,13.37
2023-03-04T19:47:44.555Z,12.93
2023-03-04T19:50:14.241Z,12.00
2023-03-04T19:52:43.424Z,12.47
2023-03-04T19:55:13.763Z,12.27
2023-03-04T19:57:43.647Z,12.23
2023-03-04T20:00:13.903Z,11.73
2023-03-04T20:02:43.912Z,11.70
2023-03-04T20:05:12.541Z,11.77
2023-03-04T20:07:41.071Z,10.77
2023-03-04T20:10:10.762Z,10.57
2023-03-04T20:12:41.175Z,9.97
2023-03-04T20:15:11.573Z,10.63
2023-03-04T20:17:40.103Z,10.27
2023-03-04T20:20:10.782Z,10.87
2023-03-04T20:22:39.300Z,9.47
2023-03-04T20:25:08.086Z,10.70
2023-03-04T20:27:36.470Z,10.53
2023-03-04T20:30:05.216Z,10.30
2023-03-04T20:32:34.998Z,10.57
2023-03-04T20:35:03.524Z,9.73
2023-03-04T20:37:32.230Z,10.50
2023-03-04T20:40:00.579Z,9.40
2023-03-04T20:42:28.951Z,11.07
2023-03-04T20:44:57.270Z,11.80
2023-03-04T20:47:25.657Z,11.37
2023-03-04T20:49:55.450Z,11.23
2023-03-04T20:52:24.258Z,12.07
2023-03-04T20:54:52.692Z,12.07
2023-03-04T20:57:21.446Z,12.10
2023-03-04T20:59:49.835Z,12.27
2023-03-04T21:02:19.801Z,11.83
2023-03-04T21:04:48.261Z,11.23
2023-03-04T21:07:17.994Z,11.37
2023-03-04T21:09:46.442Z,12.27
2023-03-04T21:12:14.950Z,12.10
2023-03-04T21:14:45.242Z,11.57
2023-03-04T21:17:14.088Z,11.67
2023-03-04T21:19:44.431Z,13.27
2023-03-04T21:22:16.144Z,13.30
2023-03-04T21:24:47.924Z,13.50
2023-03-04T21:27:16.982Z,12.80
2023-03-04T21:29:45.970Z,13.03
2023-03-04T21:32:24.142Z,12.97
2023-03-04T21:34:54.230Z,13.23
2023-03-04T21:37:23.845Z,12.43
2023-03-04T21:39:54.330Z,13.10
2023-03-04T21:42:22.925Z,13.57
2023-03-04T21:44:52.071Z,12.30
2023-03-04T21:47:21.468Z,12.03
2023-03-04T21:49:49.898Z,12.53
2023-03-04T21:52:19.414Z,11.63
2023-03-04T21:54:48.847Z,12.60
2023-03-04T21:57:19.128Z,12.13
2023-03-04T21:59:47.591Z,11.80
2023-03-04T22:02:17.394Z,13.13
2023-03-04T22:04:45.894Z,12.37
2023-03-04T22:07:14.857Z,12.37
2023-03-04T22:09:43.222Z,13.50
2023-03-04T22:12:11.669Z,15.30
2023-03-04T22:14:41.412Z,15.43
2023-03-04T22:17:09.933Z,15.37
2023-03-04T22:19:38.447Z,13.90
2023-03-04T22:22:07.374Z,13.93
2023-03-04T22:24:35.793Z,13.73
2023-03-04T22:27:04.201Z,14.90
2023-03-04T22:29:32.700Z,14.30
2023-03-04T22:32:02.530Z,13.10
2023-03-04T22:34:30.996Z,14.67
2023-03-04T22:36:59.388Z,13.37
2023-03-04T22:39:28.158Z,12.53
2023-03-04T22:41:56.612Z,12.67
2023-03-04T22:44:25.106Z,12.53
2023-03-04T22:46:53.528Z,12.73
2023-03-04T22:49:23.205Z,13.10
2023-03-04T22:51:51.453Z,13.33
2023-03-04T22:54:20.247Z,15.33
2023-03-04T22:56:48.591Z,16.83
2023-03-04T22:59:16.872Z,17.00
2023-03-04T23:01:45.281Z,15.47
2023-03-04T23:04:13.656Z,16.47
2023-03-04T23:06:43.438Z,16.90
2023-03-04T23:09:11.878Z,14.63
2023-03-04T23:11:40.392Z,16.10
2023-03-04T23:14:11.639Z,16.07
2023-03-04T23:16:43.302Z,15.50
2023-03-04T23:19:14.309Z,15.93
2023-03-04T23:21:44.718Z,16.10
2023-03-04T23:24:14.331Z,15.13
2023-03-04T23:26:44.430Z,13.80
2023-03-04T23:29:16.230Z,12.97
2023-03-04T23:31:45.452Z,14.07
2023-03-04T23:34:14.141Z,14.47
2023-03-04T23:36:44.051Z,13.60
2023-03-04T23:39:13.418Z,13.10
2023-03-04T23:41:41.844Z,13.63
2023-03-04T23:44:11.541Z,14.87
2023-03-04T23:46:40.125Z,13.50
2023-03-04T23:49:10.172Z,14.37
2023-03-04T23:51:40.893Z,13.63
2023-03-04T23:54:10.860Z,14.07
2023-03-04T23:56:39.509Z,14.43
2023-03-04T23:59:08.776Z,14.73
